sensor_id;sensor_type;location;lat;lon;timestamp;temperature;humidity
52321;DHT22;38261;54.090;13.382;2023-10-31T00:00:21;11.10;99.90
52321;DHT22;38261;54.090;13.382;2023-10-31T00:01:43;11.10;99.90
52321;DHT22;38261;54.090;13.382;2023-10-31T00:03:06;11.10;99.90
52321;DHT22;38261;54.090;13.382;2023-10-31T00:04:28;11.10;99.90
52321;DHT22;38261;54.090;13.382;2023-10-31T00:05:50;11.00;99.90
52321;DHT22;38261;54.090;13.382;2023-10-31T00:07:13;11.00;99.90
52321;DHT22;38261;54.090;13.382;2023-10-31T00:08:35;11.00;99.90
52321;DHT22;38261;54.090;13.382;2023-10-31T00:09:57;11.00;99.90
52321;DHT22;38261;54.090;13.382;2023-10-31T00:11:19;11.00;99.90
52321;DHT22;38261;54.090;13.382;2023-10-31T00:12:42;11.00;99.90
52321;DHT22;38261;54.090;13.382;2023-10-31T00:14:04;11.00;99.90
52321;DHT22;38261;54.090;13.382;2023-10-31T00:15:47;11.00;99.90
52321;DHT22;38261;54.090;13.382;2023-10-31T00:17:09;10.90;99.90
52321;DHT22;38261;54.090;13.382;2023-10-31T00:18:32;10.90;99.90
52321;DHT22;38261;54.090;13.382;2023-10-31T00:19:54;10.90;99.90
52321;DHT22;38261;54.090;13.382;2023-10-31T00:21:16;10.90;99.90
52321;DHT22;38261;54.090;13.382;2023-10-31T00:22:41;10.90;99.90
52321;DHT22;38261;54.090;13.382;2023-10-31T00:24:04;10.90;99.90
52321;DHT22;38261;54.090;13.382;2023-10-31T00:25:26;10.90;99.90
52321;DHT22;38261;54.090;13.382;2023-10-31T00:26:48;10.90;99.90
52321;DHT22;38261;54.090;13.382;2023-10-31T00:28:10;10.90;99.90
52321;DHT22;38261;54.090;13.382;2023-10-31T00:29:32;10.90;99.90
52321;DHT22;38261;54.090;13.382;2023-10-31T00:30:55;10.90;99.90
52321;DHT22;38261;54.090;13.382;2023-10-31T00:32:17;10.90;99.90
52321;DHT22;38261;54.090;13.382;2023-10-31T00:33:39;10.80;99.90
52321;DHT22;38261;54.090;13.382;2023-10-31T00:35:02;10.90;99.90
52321;DHT22;38261;54.090;13.382;2023-10-31T00:36:24;10.90;99.90
52321;DHT22;38261;54.090;13.382;2023-10-31T00:37:46;10.90;99.90
52321;DHT22;38261;54.090;13.382;2023-10-31T00:39:09;10.90;99.90
52321;DHT22;38261;54.090;13.382;2023-10-31T00:40:31;10.90;99.90
52321;DHT22;38261;54.090;13.382;2023-10-31T00:41:53;10.90;99.90
52321;DHT22;38261;54.090;13.382;2023-10-31T00:43:15;10.90;99.90
52321;DHT22;38261;54.090;13.382;2023-10-31T00:44:38;10.90;99.90
52321;DHT22;38261;54.090;13.382;2023-10-31T00:46:02;10.90;99.90
52321;DHT22;38261;54.090;13.382;2023-10-31T00:47:24;10.90;99.90
52321;DHT22;38261;54.090;13.382;2023-10-31T00:48:46;10.90;99.90
52321;DHT22;38261;54.090;13.382;2023-10-31T00:50:09;10.90;99.90
52321;DHT22;38261;54.090;13.382;2023-10-31T00:51:31;10.90;99.90
52321;DHT22;38261;54.090;13.382;2023-10-31T00:52:54;10.90;99.90
52321;DHT22;38261;54.090;13.382;2023-10-31T00:54:16;10.90;99.90
52321;DHT22;38261;54.090;13.382;2023-10-31T00:55:38;10.90;99.90
52321;DHT22;38261;54.090;13.382;2023-10-31T00:57:01;10.90;99.90
52321;DHT22;38261;54.090;13.382;2023-10-31T00:58:23;10.90;99.90
52321;DHT22;38261;54.090;13.382;2023-10-31T00:59:45;10.90;99.90
52321;DHT22;38261;54.090;13.382;2023-10-31T01:01:08;10.90;99.90
52321;DHT22;38261;54.090;13.382;2023-10-31T01:02:30;10.90;99.90
52321;DHT22;38261;54.090;13.382;2023-10-31T01:03:52;10.90;99.90
52321;DHT22;38261;54.090;13.382;2023-10-31T01:05:14;10.90;99.90
52321;DHT22;38261;54.090;13.382;2023-10-31T01:06:43;10.90;99.90
52321;DHT22;38261;54.090;13.382;2023-10-31T01:08:05;10.90;99.90
52321;DHT22;38261;54.090;13.382;2023-10-31T01:09:28;10.90;99.90
52321;DHT22;38261;54.090;13.382;2023-10-31T01:10:50;10.90;99.90
52321;DHT22;38261;54.090;13.382;2023-10-31T01:12:12;10.90;99.90
52321;DHT22;38261;54.090;13.382;2023-10-31T01:13:34;10.90;99.90
52321;DHT22;38261;54.090;13.382;2023-10-31T01:14:57;10.90;99.90
52321;DHT22;38261;54.090;13.382;2023-10-31T01:16:24;10.90;99.90
52321;DHT22;38261;54.090;13.382;2023-10-31T01:17:47;10.90;99.90
52321;DHT22;38261;54.090;13.382;2023-10-31T01:19:09;10.90;99.90
52321;DHT22;38261;54.090;13.382;2023-10-31T01:20:31;10.90;99.90
52321;DHT22;38261;54.090;13.382;2023-10-31T01:21:54;10.90;99.90
52321;DHT22;38261;54.090;13.382;2023-10-31T01:23:16;10.90;99.90
52321;DHT22;38261;54.090;13.382;2023-10-31T01:24:38;10.90;99.90
52321;DHT22;38261;54.090;13.382;2023-10-31T01:26:00;10.90;99.90
52321;DHT22;38261;54.090;13.382;2023-10-31T01:27:23;10.90;99.90
52321;DHT22;38261;54.090;13.382;2023-10-31T01:28:45;10.90;99.90
52321;DHT22;38261;54.090;13.382;2023-10-31T01:30:08;10.90;99.90
52321;DHT22;38261;54.090;13.382;2023-10-31T01:31:30;10.90;99.90
52321;DHT22;38261;54.090;13.382;2023-10-31T01:33:00;10.90;99.90
52321;DHT22;38261;54.090;13.382;2023-10-31T01:34:22;10.90;99.90
52321;DHT22;38261;54.090;13.382;2023-10-31T01:35:45;10.90;99.90
52321;DHT22;38261;54.090;13.382;2023-10-31T01:37:07;10.90;99.90
52321;DHT22;38261;54.090;13.382;2023-10-31T01:38:29;10.90;99.90
52321;DHT22;38261;54.090;13.382;2023-10-31T01:39:52;10.90;99.90
52321;DHT22;38261;54.090;13.382;2023-10-31T01:41:14;10.90;99.90
52321;DHT22;38261;54.090;13.382;2023-10-31T01:42:36;10.90;99.90
52321;DHT22;38261;54.090;13.382;2023-10-31T01:43:59;10.90;99.90
52321;DHT22;38261;54.090;13.382;2023-10-31T01:45:21;10.90;99.90
52321;DHT22;38261;54.090;13.382;2023-10-31T01:46:43;10.90;99.90
52321;DHT22;38261;54.090;13.382;2023-10-31T01:48:06;10.90;99.90
52321;DHT22;38261;54.090;13.382;2023-10-31T01:49:28;10.80;99.90
52321;DHT22;38261;54.090;13.382;2023-10-31T01:50:51;10.90;99.90
52321;DHT22;38261;54.090;13.382;2023-10-31T01:52:13;10.80;99.90
52321;DHT22;38261;54.090;13.382;2023-10-31T01:53:36;10.80;99.90
52321;DHT22;38261;54.090;13.382;2023-10-31T01:54:59;10.90;99.90
52321;DHT22;38261;54.090;13.382;2023-10-31T01:56:22;10.90;99.90
52321;DHT22;38261;54.090;13.382;2023-10-31T01:57:48;10.90;99.90
52321;DHT22;38261;54.090;13.382;2023-10-31T01:59:11;10.90;99.90
52321;DHT22;38261;54.090;13.382;2023-10-31T02:00:33;10.90;99.90
52321;DHT22;38261;54.090;13.382;2023-10-31T02:01:57;10.90;99.90
52321;DHT22;38261;54.090;13.382;2023-10-31T02:03:19;10.90;99.90
52321;DHT22;38261;54.090;13.382;2023-10-31T02:04:42;10.90;99.90
52321;DHT22;38261;54.090;13.382;2023-10-31T02:06:05;11.00;99.90
52321;DHT22;38261;54.090;13.382;2023-10-31T02:07:27;11.00;99.90
52321;DHT22;38261;54.090;13.382;2023-10-31T02:08:49;11.00;99.90
52321;DHT22;38261;54.090;13.382;2023-10-31T02:10:12;11.00;99.90
52321;DHT22;38261;54.090;13.382;2023-10-31T02:11:34;11.00;99.90
52321;DHT22;38261;54.090;13.382;2023-10-31T02:12:56;11.00;99.90
52321;DHT22;38261;54.090;13.382;2023-10-31T02:14:18;11.00;99.90
52321;DHT22;38261;54.090;13.382;2023-10-31T02:15:41;11.00;99.90
52321;DHT22;38261;54.090;13.382;2023-10-31T02:17:03;11.00;99.90
52321;DHT22;38261;54.090;13.382;2023-10-31T02:18:25;11.00;99.90
52321;DHT22;38261;54.090;13.382;2023-10-31T02:19:47;11.00;99.90
52321;DHT22;38261;54.090;13.382;2023-10-31T02:21:10;11.00;99.90
52321;DHT22;38261;54.090;13.382;2023-10-31T02:22:32;11.00;99.90
52321;DHT22;38261;54.090;13.382;2023-10-31T02:24:00;11.00;99.90
52321;DHT22;38261;54.090;13.382;2023-10-31T02:25:23;11.00;99.90
52321;DHT22;38261;54.090;13.382;2023-10-31T02:26:45;11.00;99.90
52321;DHT22;38261;54.090;13.382;2023-10-31T02:28:07;11.00;99.90
52321;DHT22;38261;54.090;13.382;2023-10-31T02:29:29;11.00;99.90
52321;DHT22;38261;54.090;13.382;2023-10-31T02:30:52;11.00;99.90
52321;DHT22;38261;54.090;13.382;2023-10-31T02:32:14;11.00;99.90
52321;DHT22;38261;54.090;13.382;2023-10-31T02:33:38;11.00;99.90
52321;DHT22;38261;54.090;13.382;2023-10-31T02:35:00;11.10;99.90
52321;DHT22;38261;54.090;13.382;2023-10-31T02:36:22;11.10;99.90
52321;DHT22;38261;54.090;13.382;2023-10-31T02:37:48;11.10;99.90
52321;DHT22;38261;54.090;13.382;2023-10-31T02:39:11;11.10;99.90
52321;DHT22;38261;54.090;13.382;2023-10-31T02:40:33;11.10;99.90
52321;DHT22;38261;54.090;13.382;2023-10-31T02:41:55;11.10;99.90
52321;DHT22;38261;54.090;13.382;2023-10-31T02:43:18;11.10;99.90
52321;DHT22;38261;54.090;13.382;2023-10-31T02:44:40;11.10;99.90
52321;DHT22;38261;54.090;13.382;2023-10-31T02:46:02;11.10;99.90
52321;DHT22;38261;54.090;13.382;2023-10-31T02:47:25;11.10;99.90
52321;DHT22;38261;54.090;13.382;2023-10-31T02:48:47;11.10;99.90
52321;DHT22;38261;54.090;13.382;2023-10-31T02:50:09;11.10;99.90
52321;DHT22;38261;54.090;13.382;2023-10-31T02:51:32;11.10;99.90
52321;DHT22;38261;54.090;13.382;2023-10-31T02:52:54;11.10;99.90
52321;DHT22;38261;54.090;13.382;2023-10-31T02:54:16;11.10;99.90
52321;DHT22;38261;54.090;13.382;2023-10-31T02:55:38;11.10;99.90
52321;DHT22;38261;54.090;13.382;2023-10-31T02:57:01;11.10;99.90
52321;DHT22;38261;54.090;13.382;2023-10-31T02:58:23;11.10;99.90
52321;DHT22;38261;54.090;13.382;2023-10-31T02:59:45;11.10;99.90
52321;DHT22;38261;54.090;13.382;2023-10-31T03:01:08;11.10;99.90
52321;DHT22;38261;54.090;13.382;2023-10-31T03:02:30;11.00;99.90
52321;DHT22;38261;54.090;13.382;2023-10-31T03:03:52;11.00;99.90
52321;DHT22;38261;54.090;13.382;2023-10-31T03:05:15;11.00;99.90
52321;DHT22;38261;54.090;13.382;2023-10-31T03:06:37;11.00;99.90
52321;DHT22;38261;54.090;13.382;2023-10-31T03:07:59;11.00;99.90
52321;DHT22;38261;54.090;13.382;2023-10-31T03:09:21;11.10;99.90
52321;DHT22;38261;54.090;13.382;2023-10-31T03:10:44;11.00;99.90
52321;DHT22;38261;54.090;13.382;2023-10-31T03:12:06;11.00;99.90
52321;DHT22;38261;54.090;13.382;2023-10-31T03:13:28;11.00;99.90
52321;DHT22;38261;54.090;13.382;2023-10-31T03:14:51;11.00;99.90
52321;DHT22;38261;54.090;13.382;2023-10-31T03:16:13;11.10;99.90
52321;DHT22;38261;54.090;13.382;2023-10-31T03:17:36;11.10;99.90
52321;DHT22;38261;54.090;13.382;2023-10-31T03:18:58;11.10;99.90
52321;DHT22;38261;54.090;13.382;2023-10-31T03:20:20;11.10;99.90
52321;DHT22;38261;54.090;13.382;2023-10-31T03:21:42;11.10;99.90
52321;DHT22;38261;54.090;13.382;2023-10-31T03:23:05;11.10;99.90
52321;DHT22;38261;54.090;13.382;2023-10-31T03:24:27;11.00;99.90
52321;DHT22;38261;54.090;13.382;2023-10-31T03:25:49;11.00;99.90
52321;DHT22;38261;54.090;13.382;2023-10-31T03:27:11;11.00;99.90
52321;DHT22;38261;54.090;13.382;2023-10-31T03:28:34;11.10;99.90
52321;DHT22;38261;54.090;13.382;2023-10-31T03:29:56;11.10;99.90
52321;DHT22;38261;54.090;13.382;2023-10-31T03:31:18;11.10;99.90
52321;DHT22;38261;54.090;13.382;2023-10-31T03:32:40;11.10;99.90
52321;DHT22;38261;54.090;13.382;2023-10-31T03:34:03;11.10;99.90
52321;DHT22;38261;54.090;13.382;2023-10-31T03:35:25;11.10;99.90
52321;DHT22;38261;54.090;13.382;2023-10-31T03:36:47;11.10;99.90
52321;DHT22;38261;54.090;13.382;2023-10-31T03:38:09;11.10;99.90
52321;DHT22;38261;54.090;13.382;2023-10-31T03:39:32;11.10;99.90
52321;DHT22;38261;54.090;13.382;2023-10-31T03:40:54;11.10;99.90
52321;DHT22;38261;54.090;13.382;2023-10-31T03:42:16;11.10;99.90
52321;DHT22;38261;54.090;13.382;2023-10-31T03:43:38;11.10;99.90
52321;DHT22;38261;54.090;13.382;2023-10-31T03:45:01;11.10;99.90
52321;DHT22;38261;54.090;13.382;2023-10-31T03:46:24;11.10;99.90
52321;DHT22;38261;54.090;13.382;2023-10-31T03:47:46;11.10;99.90
52321;DHT22;38261;54.090;13.382;2023-10-31T03:49:08;11.00;99.90
52321;DHT22;38261;54.090;13.382;2023-10-31T03:50:30;11.00;99.90
52321;DHT22;38261;54.090;13.382;2023-10-31T03:51:53;11.00;99.90
52321;DHT22;38261;54.090;13.382;2023-10-31T03:53:15;11.00;99.90
52321;DHT22;38261;54.090;13.382;2023-10-31T03:54:37;11.10;99.90
52321;DHT22;38261;54.090;13.382;2023-10-31T03:55:59;11.10;99.90
52321;DHT22;38261;54.090;13.382;2023-10-31T03:57:22;11.10;99.90
52321;DHT22;38261;54.090;13.382;2023-10-31T03:58:44;11.10;99.90
52321;DHT22;38261;54.090;13.382;2023-10-31T04:00:07;11.10;99.90
52321;DHT22;38261;54.090;13.382;2023-10-31T04:01:29;11.10;99.90
52321;DHT22;38261;54.090;13.382;2023-10-31T04:02:51;11.10;99.90
52321;DHT22;38261;54.090;13.382;2023-10-31T04:04:14;11.10;99.90
52321;DHT22;38261;54.090;13.382;2023-10-31T04:05:36;11.10;99.90
52321;DHT22;38261;54.090;13.382;2023-10-31T04:06:59;11.10;99.90
52321;DHT22;38261;54.090;13.382;2023-10-31T04:08:21;11.00;99.90
52321;DHT22;38261;54.090;13.382;2023-10-31T04:09:43;11.00;99.90
52321;DHT22;38261;54.090;13.382;2023-10-31T04:11:06;11.00;99.90
52321;DHT22;38261;54.090;13.382;2023-10-31T04:12:28;11.00;99.90
52321;DHT22;38261;54.090;13.382;2023-10-31T04:13:50;11.00;99.90
52321;DHT22;38261;54.090;13.382;2023-10-31T04:15:12;11.10;99.90
52321;DHT22;38261;54.090;13.382;2023-10-31T04:16:41;11.00;99.90
52321;DHT22;38261;54.090;13.382;2023-10-31T04:18:07;11.00;99.90
52321;DHT22;38261;54.090;13.382;2023-10-31T04:19:30;11.00;99.90
52321;DHT22;38261;54.090;13.382;2023-10-31T04:20:52;11.10;99.90
52321;DHT22;38261;54.090;13.382;2023-10-31T04:22:14;11.00;99.90
52321;DHT22;38261;54.090;13.382;2023-10-31T04:23:36;11.00;99.90
52321;DHT22;38261;54.090;13.382;2023-10-31T04:25:01;11.10;99.90
52321;DHT22;38261;54.090;13.382;2023-10-31T04:26:23;11.10;99.90
52321;DHT22;38261;54.090;13.382;2023-10-31T04:27:45;11.10;99.90
52321;DHT22;38261;54.090;13.382;2023-10-31T04:29:07;11.10;99.90
52321;DHT22;38261;54.090;13.382;2023-10-31T04:30:30;11.10;99.90
52321;DHT22;38261;54.090;13.382;2023-10-31T04:31:52;11.10;99.90
52321;DHT22;38261;54.090;13.382;2023-10-31T04:33:14;11.10;99.90
52321;DHT22;38261;54.090;13.382;2023-10-31T04:34:37;11.10;99.90
52321;DHT22;38261;54.090;13.382;2023-10-31T04:35:59;11.10;99.90
52321;DHT22;38261;54.090;13.382;2023-10-31T04:37:22;11.10;99.90
52321;DHT22;38261;54.090;13.382;2023-10-31T04:38:45;11.00;99.90
52321;DHT22;38261;54.090;13.382;2023-10-31T04:40:07;11.00;99.90
52321;DHT22;38261;54.090;13.382;2023-10-31T04:41:29;11.00;99.90
52321;DHT22;38261;54.090;13.382;2023-10-31T04:42:52;11.10;99.90
52321;DHT22;38261;54.090;13.382;2023-10-31T04:44:14;11.00;99.90
52321;DHT22;38261;54.090;13.382;2023-10-31T04:45:36;11.00;99.90
52321;DHT22;38261;54.090;13.382;2023-10-31T04:46:59;11.00;99.90
52321;DHT22;38261;54.090;13.382;2023-10-31T04:48:21;11.00;99.90
52321;DHT22;38261;54.090;13.382;2023-10-31T04:49:44;11.00;99.90
52321;DHT22;38261;54.090;13.382;2023-10-31T04:51:06;11.10;99.90
52321;DHT22;38261;54.090;13.382;2023-10-31T04:52:28;11.10;99.90
52321;DHT22;38261;54.090;13.382;2023-10-31T04:53:50;11.10;99.90
52321;DHT22;38261;54.090;13.382;2023-10-31T04:55:12;11.10;99.90
52321;DHT22;38261;54.090;13.382;2023-10-31T04:56:38;11.10;99.90
52321;DHT22;38261;54.090;13.382;2023-10-31T04:58:01;11.10;99.90
52321;DHT22;38261;54.090;13.382;2023-10-31T04:59:23;11.10;99.90
52321;DHT22;38261;54.090;13.382;2023-10-31T05:00:46;11.10;99.90
52321;DHT22;38261;54.090;13.382;2023-10-31T05:02:08;11.10;99.90
52321;DHT22;38261;54.090;13.382;2023-10-31T05:03:31;11.10;99.90
52321;DHT22;38261;54.090;13.382;2023-10-31T05:04:53;11.10;99.90
52321;DHT22;38261;54.090;13.382;2023-10-31T05:06:20;11.10;99.90
52321;DHT22;38261;54.090;13.382;2023-10-31T05:07:42;11.10;99.90
52321;DHT22;38261;54.090;13.382;2023-10-31T05:09:05;11.10;99.90
52321;DHT22;38261;54.090;13.382;2023-10-31T05:10:28;11.10;99.90
52321;DHT22;38261;54.090;13.382;2023-10-31T05:11:50;11.10;99.90
52321;DHT22;38261;54.090;13.382;2023-10-31T05:13:12;11.20;99.90
52321;DHT22;38261;54.090;13.382;2023-10-31T05:14:34;11.10;99.90
52321;DHT22;38261;54.090;13.382;2023-10-31T05:15:58;11.10;99.90
52321;DHT22;38261;54.090;13.382;2023-10-31T05:17:20;11.10;99.90
52321;DHT22;38261;54.090;13.382;2023-10-31T05:18:43;11.20;99.90
52321;DHT22;38261;54.090;13.382;2023-10-31T05:20:05;11.20;99.90
52321;DHT22;38261;54.090;13.382;2023-10-31T05:21:28;11.20;99.90
52321;DHT22;38261;54.090;13.382;2023-10-31T05:22:50;11.20;99.90
52321;DHT22;38261;54.090;13.382;2023-10-31T05:24:13;11.10;99.90
52321;DHT22;38261;54.090;13.382;2023-10-31T05:25:35;11.10;99.90
52321;DHT22;38261;54.090;13.382;2023-10-31T05:26:57;11.10;99.90
52321;DHT22;38261;54.090;13.382;2023-10-31T05:28:20;11.10;99.90
52321;DHT22;38261;54.090;13.382;2023-10-31T05:29:42;11.20;99.90
52321;DHT22;38261;54.090;13.382;2023-10-31T05:31:04;11.20;99.90
52321;DHT22;38261;54.090;13.382;2023-10-31T05:32:26;11.20;99.90
52321;DHT22;38261;54.090;13.382;2023-10-31T05:33:48;11.20;99.90
52321;DHT22;38261;54.090;13.382;2023-10-31T05:35:11;11.20;99.90
52321;DHT22;38261;54.090;13.382;2023-10-31T05:36:33;11.20;99.90
52321;DHT22;38261;54.090;13.382;2023-10-31T05:37:55;11.20;99.90
52321;DHT22;38261;54.090;13.382;2023-10-31T05:39:18;11.20;99.90
52321;DHT22;38261;54.090;13.382;2023-10-31T05:40:40;11.20;99.90
52321;DHT22;38261;54.090;13.382;2023-10-31T05:42:03;11.20;99.90
52321;DHT22;38261;54.090;13.382;2023-10-31T05:43:25;11.20;99.90
52321;DHT22;38261;54.090;13.382;2023-10-31T05:44:47;11.20;99.90
52321;DHT22;38261;54.090;13.382;2023-10-31T05:46:10;11.20;99.90
52321;DHT22;38261;54.090;13.382;2023-10-31T05:47:32;11.20;99.90
52321;DHT22;38261;54.090;13.382;2023-10-31T05:48:57;11.20;99.90
52321;DHT22;38261;54.090;13.382;2023-10-31T05:50:19;11.20;99.90
52321;DHT22;38261;54.090;13.382;2023-10-31T05:51:41;11.20;99.90
52321;DHT22;38261;54.090;13.382;2023-10-31T05:53:05;11.20;99.90
52321;DHT22;38261;54.090;13.382;2023-10-31T05:54:27;11.20;99.90
52321;DHT22;38261;54.090;13.382;2023-10-31T05:55:49;11.20;99.90
52321;DHT22;38261;54.090;13.382;2023-10-31T05:57:11;11.20;99.90
52321;DHT22;38261;54.090;13.382;2023-10-31T05:58:33;11.20;99.90
52321;DHT22;38261;54.090;13.382;2023-10-31T05:59:55;11.20;99.90
52321;DHT22;38261;54.090;13.382;2023-10-31T06:01:18;11.10;99.90
52321;DHT22;38261;54.090;13.382;2023-10-31T06:02:40;11.10;99.90
52321;DHT22;38261;54.090;13.382;2023-10-31T06:04:02;11.10;99.90
52321;DHT22;38261;54.090;13.382;2023-10-31T06:05:25;11.10;99.90
52321;DHT22;38261;54.090;13.382;2023-10-31T06:06:47;11.10;99.90
52321;DHT22;38261;54.090;13.382;2023-10-31T06:08:09;11.10;99.90
52321;DHT22;38261;54.090;13.382;2023-10-31T06:09:32;11.10;99.90
52321;DHT22;38261;54.090;13.382;2023-10-31T06:10:56;11.10;99.90
52321;DHT22;38261;54.090;13.382;2023-10-31T06:12:18;11.10;99.90
52321;DHT22;38261;54.090;13.382;2023-10-31T06:13:40;11.10;99.90
52321;DHT22;38261;54.090;13.382;2023-10-31T06:15:03;11.10;99.90
52321;DHT22;38261;54.090;13.382;2023-10-31T06:16:25;11.10;99.90
52321;DHT22;38261;54.090;13.382;2023-10-31T06:17:47;11.10;99.90
52321;DHT22;38261;54.090;13.382;2023-10-31T06:19:10;11.10;99.90
52321;DHT22;38261;54.090;13.382;2023-10-31T06:20:32;11.10;99.90
52321;DHT22;38261;54.090;13.382;2023-10-31T06:21:56;11.10;99.90
52321;DHT22;38261;54.090;13.382;2023-10-31T06:23:18;11.10;99.90
52321;DHT22;38261;54.090;13.382;2023-10-31T06:24:40;11.10;99.90
52321;DHT22;38261;54.090;13.382;2023-10-31T06:26:03;11.10;99.90
52321;DHT22;38261;54.090;13.382;2023-10-31T06:27:25;11.10;99.90
52321;DHT22;38261;54.090;13.382;2023-10-31T06:28:47;11.10;99.90
52321;DHT22;38261;54.090;13.382;2023-10-31T06:30:29;11.10;99.90
52321;DHT22;38261;54.090;13.382;2023-10-31T06:31:52;11.10;99.90
52321;DHT22;38261;54.090;13.382;2023-10-31T06:33:14;11.10;99.90
52321;DHT22;38261;54.090;13.382;2023-10-31T06:34:36;11.10;99.90
52321;DHT22;38261;54.090;13.382;2023-10-31T06:35:58;11.10;99.90
52321;DHT22;38261;54.090;13.382;2023-10-31T06:37:20;11.10;99.90
52321;DHT22;38261;54.090;13.382;2023-10-31T06:38:43;11.10;99.90
52321;DHT22;38261;54.090;13.382;2023-10-31T06:40:05;11.10;99.90
52321;DHT22;38261;54.090;13.382;2023-10-31T06:41:28;11.10;99.90
52321;DHT22;38261;54.090;13.382;2023-10-31T06:42:50;11.20;99.90
52321;DHT22;38261;54.090;13.382;2023-10-31T06:44:12;11.20;99.90
52321;DHT22;38261;54.090;13.382;2023-10-31T06:45:34;11.20;99.90
52321;DHT22;38261;54.090;13.382;2023-10-31T06:46:56;11.20;99.90
52321;DHT22;38261;54.090;13.382;2023-10-31T06:48:19;11.20;99.90
52321;DHT22;38261;54.090;13.382;2023-10-31T06:49:41;11.20;99.90
52321;DHT22;38261;54.090;13.382;2023-10-31T06:51:03;11.30;99.90
52321;DHT22;38261;54.090;13.382;2023-10-31T06:52:26;11.30;99.90
52321;DHT22;38261;54.090;13.382;2023-10-31T06:53:49;11.30;99.90
52321;DHT22;38261;54.090;13.382;2023-10-31T06:55:11;11.30;99.90
52321;DHT22;38261;54.090;13.382;2023-10-31T06:56:33;11.30;99.90
52321;DHT22;38261;54.090;13.382;2023-10-31T06:57:55;11.40;99.90
52321;DHT22;38261;54.090;13.382;2023-10-31T06:59:17;11.40;99.90
52321;DHT22;38261;54.090;13.382;2023-10-31T07:00:39;11.40;99.90
52321;DHT22;38261;54.090;13.382;2023-10-31T07:02:02;11.40;99.90
52321;DHT22;38261;54.090;13.382;2023-10-31T07:03:24;11.50;99.90
52321;DHT22;38261;54.090;13.382;2023-10-31T07:04:46;11.50;99.90
52321;DHT22;38261;54.090;13.382;2023-10-31T07:06:09;11.50;99.90
52321;DHT22;38261;54.090;13.382;2023-10-31T07:07:31;11.50;99.90
52321;DHT22;38261;54.090;13.382;2023-10-31T07:08:53;11.50;99.90
52321;DHT22;38261;54.090;13.382;2023-10-31T07:10:15;11.50;99.90
52321;DHT22;38261;54.090;13.382;2023-10-31T07:11:37;11.50;99.90
52321;DHT22;38261;54.090;13.382;2023-10-31T07:12:59;11.50;99.90
52321;DHT22;38261;54.090;13.382;2023-10-31T07:14:22;11.50;99.90
52321;DHT22;38261;54.090;13.382;2023-10-31T07:15:44;11.50;99.90
52321;DHT22;38261;54.090;13.382;2023-10-31T07:17:06;11.50;99.90
52321;DHT22;38261;54.090;13.382;2023-10-31T07:18:28;11.60;99.90
52321;DHT22;38261;54.090;13.382;2023-10-31T07:19:50;11.60;99.90
52321;DHT22;38261;54.090;13.382;2023-10-31T07:21:13;11.60;99.90
52321;DHT22;38261;54.090;13.382;2023-10-31T07:22:35;11.70;99.90
52321;DHT22;38261;54.090;13.382;2023-10-31T07:23:57;11.70;99.90
52321;DHT22;38261;54.090;13.382;2023-10-31T07:25:20;11.80;99.90
52321;DHT22;38261;54.090;13.382;2023-10-31T07:26:42;11.80;99.90
52321;DHT22;38261;54.090;13.382;2023-10-31T07:28:05;11.80;99.90
52321;DHT22;38261;54.090;13.382;2023-10-31T07:29:27;11.80;99.90
52321;DHT22;38261;54.090;13.382;2023-10-31T07:30:49;11.80;99.90
52321;DHT22;38261;54.090;13.382;2023-10-31T07:32:12;11.80;99.90
52321;DHT22;38261;54.090;13.382;2023-10-31T07:33:35;11.90;99.90
52321;DHT22;38261;54.090;13.382;2023-10-31T07:34:57;11.90;99.90
52321;DHT22;38261;54.090;13.382;2023-10-31T07:36:19;11.90;99.90
52321;DHT22;38261;54.090;13.382;2023-10-31T07:37:41;12.00;99.90
52321;DHT22;38261;54.090;13.382;2023-10-31T07:39:03;12.00;99.90
52321;DHT22;38261;54.090;13.382;2023-10-31T07:40:26;12.00;99.90
52321;DHT22;38261;54.090;13.382;2023-10-31T07:41:48;12.00;99.90
52321;DHT22;38261;54.090;13.382;2023-10-31T07:43:10;12.00;99.90
52321;DHT22;38261;54.090;13.382;2023-10-31T07:44:32;12.00;99.90
52321;DHT22;38261;54.090;13.382;2023-10-31T07:45:54;12.00;99.90
52321;DHT22;38261;54.090;13.382;2023-10-31T07:47:16;11.90;99.90
52321;DHT22;38261;54.090;13.382;2023-10-31T07:48:39;11.90;99.90
52321;DHT22;38261;54.090;13.382;2023-10-31T07:50:01;11.90;99.90
52321;DHT22;38261;54.090;13.382;2023-10-31T07:51:23;11.90;99.90
52321;DHT22;38261;54.090;13.382;2023-10-31T07:52:45;11.90;99.90
52321;DHT22;38261;54.090;13.382;2023-10-31T07:54:09;11.90;99.90
52321;DHT22;38261;54.090;13.382;2023-10-31T07:55:31;12.00;99.90
52321;DHT22;38261;54.090;13.382;2023-10-31T07:56:53;12.00;99.90
52321;DHT22;38261;54.090;13.382;2023-10-31T07:58:16;12.10;99.90
52321;DHT22;38261;54.090;13.382;2023-10-31T07:59:38;12.10;99.90
52321;DHT22;38261;54.090;13.382;2023-10-31T08:01:01;12.20;99.90
52321;DHT22;38261;54.090;13.382;2023-10-31T08:02:23;12.20;99.90
52321;DHT22;38261;54.090;13.382;2023-10-31T08:03:48;12.30;99.90
52321;DHT22;38261;54.090;13.382;2023-10-31T08:05:11;12.40;99.90
52321;DHT22;38261;54.090;13.382;2023-10-31T08:06:36;12.40;99.90
52321;DHT22;38261;54.090;13.382;2023-10-31T08:08:01;12.50;99.90
52321;DHT22;38261;54.090;13.382;2023-10-31T08:09:24;12.60;99.90
52321;DHT22;38261;54.090;13.382;2023-10-31T08:10:46;12.60;99.90
52321;DHT22;38261;54.090;13.382;2023-10-31T08:12:08;12.70;99.90
52321;DHT22;38261;54.090;13.382;2023-10-31T08:13:32;12.70;99.90
52321;DHT22;38261;54.090;13.382;2023-10-31T08:14:54;12.70;99.90
52321;DHT22;38261;54.090;13.382;2023-10-31T08:16:19;12.80;99.90
52321;DHT22;38261;54.090;13.382;2023-10-31T08:17:41;12.80;99.90
52321;DHT22;38261;54.090;13.382;2023-10-31T08:19:04;12.80;99.90
52321;DHT22;38261;54.090;13.382;2023-10-31T08:20:26;12.80;99.90
52321;DHT22;38261;54.090;13.382;2023-10-31T08:21:54;12.80;99.90
52321;DHT22;38261;54.090;13.382;2023-10-31T08:23:19;12.80;99.90
52321;DHT22;38261;54.090;13.382;2023-10-31T08:24:42;12.80;99.90
52321;DHT22;38261;54.090;13.382;2023-10-31T08:26:04;12.80;99.90
52321;DHT22;38261;54.090;13.382;2023-10-31T08:27:26;12.80;99.90
52321;DHT22;38261;54.090;13.382;2023-10-31T08:28:49;12.80;99.90
52321;DHT22;38261;54.090;13.382;2023-10-31T08:30:11;12.80;99.90
52321;DHT22;38261;54.090;13.382;2023-10-31T08:31:33;12.80;99.90
52321;DHT22;38261;54.090;13.382;2023-10-31T08:32:56;12.80;99.90